createdAt,value
2018-09-14T00:01:09.115Z,4.60
2018-09-14T00:03:38.387Z,4.93
2018-09-14T00:06:07.663Z,5.40
2018-09-14T00:08:43.737Z,4.93
2018-09-14T00:11:13.167Z,11.40
2018-09-14T00:13:42.439Z,13.07
2018-09-14T00:16:11.730Z,8.57
2018-09-14T00:18:40.939Z,14.23
2018-09-14T00:21:10.318Z,15.73
2018-09-14T00:23:39.548Z,16.20
2018-09-14T00:26:08.772Z,16.77
2018-09-14T00:28:38.043Z,18.47
2018-09-14T00:31:07.375Z,18.00
2018-09-14T00:33:36.678Z,18.13
2018-09-14T00:36:06.030Z,19.70
2018-09-14T00:38:35.332Z,18.93
2018-09-14T00:41:04.615Z,20.60
2018-09-14T00:43:33.837Z,21.30
2018-09-14T00:46:03.111Z,21.90
2018-09-14T00:48:32.351Z,22.30
2018-09-14T00:51:01.597Z,24.27
2018-09-14T00:53:30.765Z,24.37
2018-09-14T00:56:00.001Z,24.57
2018-09-14T00:58:29.625Z,24.63
2018-09-14T01:00:58.950Z,23.37
2018-09-14T01:03:28.186Z,26.43
2018-09-14T01:05:57.416Z,25.50
2018-09-14T01:08:26.699Z,27.10
2018-09-14T01:10:56.023Z,25.80
2018-09-14T01:13:25.315Z,28.20
2018-09-14T01:15:54.638Z,30.13
2018-09-14T01:18:23.983Z,28.70
2018-09-14T01:20:53.360Z,31.30
2018-09-14T01:23:22.633Z,29.90
2018-09-14T01:25:53.097Z,29.67
2018-09-14T01:28:22.376Z,31.90
2018-09-14T01:30:51.713Z,29.67
2018-09-14T01:33:20.903Z,30.47
2018-09-14T01:35:55.340Z,31.30
2018-09-14T01:38:24.548Z,29.20
2018-09-14T01:40:53.723Z,27.73
2018-09-14T01:43:22.924Z,29.83
2018-09-14T01:45:52.166Z,28.13
2018-09-14T01:48:21.508Z,30.03
2018-09-14T01:50:50.681Z,28.10
2018-09-14T01:53:19.896Z,28.13
2018-09-14T01:55:49.185Z,28.87
2018-09-14T01:58:18.478Z,29.40
2018-09-14T02:00:47.793Z,27.23
2018-09-14T02:03:17.055Z,27.60
2018-09-14T02:05:46.314Z,28.10
2018-09-14T02:08:16.469Z,26.87
2018-09-14T02:10:45.700Z,25.90
2018-09-14T02:13:15.031Z,25.67
2018-09-14T02:15:44.372Z,25.27
2018-09-14T02:18:13.711Z,24.67
2018-09-14T02:20:42.984Z,23.47
2018-09-14T02:23:12.306Z,24.47
2018-09-14T02:25:41.710Z,23.43
2018-09-14T02:28:10.980Z,24.47
2018-09-14T02:30:40.509Z,19.07
2018-09-14T02:33:09.881Z,19.80
2018-09-14T02:35:39.103Z,18.17
2018-09-14T02:38:08.317Z,20.17
2018-09-14T02:40:37.557Z,21.13
2018-09-14T02:43:06.772Z,21.60
2018-09-14T02:45:36.004Z,21.17
2018-09-14T02:48:05.383Z,22.23
2018-09-14T02:50:34.957Z,19.10
2018-09-14T02:53:04.209Z,19.10
2018-09-14T02:55:33.580Z,20.67
2018-09-14T02:58:02.820Z,19.30
2018-09-14T03:00:32.041Z,18.17
2018-09-14T03:03:01.200Z,16.97
2018-09-14T03:05:30.512Z,17.43
2018-09-14T03:07:59.735Z,18.67
2018-09-14T03:10:29.853Z,18.57
2018-09-14T03:12:59.113Z,19.23
2018-09-14T03:15:28.651Z,21.10
2018-09-14T03:17:58.138Z,21.17
2018-09-14T03:20:27.419Z,20.40
2018-09-14T03:22:56.714Z,19.57
2018-09-14T03:25:25.934Z,22.40
2018-09-14T03:27:55.188Z,19.73
2018-09-14T03:30:24.504Z,19.03
2018-09-14T03:32:53.731Z,16.43
2018-09-14T03:35:23.073Z,16.70
2018-09-14T03:37:52.339Z,18.30
2018-09-14T03:40:21.602Z,16.00
2018-09-14T03:42:50.770Z,16.57
2018-09-14T03:45:20.176Z,16.57
2018-09-14T03:47:49.393Z,16.50
2018-09-14T03:50:19.179Z,16.50
2018-09-14T03:52:48.381Z,15.77
2018-09-14T03:55:17.931Z,16.63
2018-09-14T03:57:47.158Z,17.07
2018-09-14T04:00:16.504Z,15.60
2018-09-14T04:02:45.691Z,15.00
2018-09-14T04:05:15.177Z,15.90
2018-09-14T04:07:44.441Z,15.80
2018-09-14T04:10:14.057Z,15.70
2018-09-14T04:12:43.462Z,15.60
2018-09-14T04:15:13.357Z,16.50
2018-09-14T04:17:43.167Z,16.23
2018-09-14T04:20:13.966Z,16.30
2018-09-14T04:22:43.577Z,17.47
2018-09-14T04:25:16.198Z,20.63
2018-09-14T04:27:45.884Z,18.43
2018-09-14T04:30:16.103Z,17.33
2018-09-14T04:32:45.831Z,15.87
2018-09-14T04:35:20.186Z,16.17
2018-09-14T04:37:49.453Z,18.70
2018-09-14T04:40:20.041Z,19.50
2018-09-14T04:42:50.808Z,15.53
2018-09-14T04:45:20.491Z,16.63
2018-09-14T04:47:50.005Z,15.43
2018-09-14T04:50:19.502Z,16.10
2018-09-14T04:52:48.746Z,16.37
2018-09-14T04:55:18.382Z,19.43
2018-09-14T04:57:47.641Z,14.60
2018-09-14T05:00:17.015Z,14.43
2018-09-14T05:02:46.287Z,16.13
2018-09-14T05:05:15.497Z,15.33
2018-09-14T05:07:44.717Z,13.77
2018-09-14T05:10:13.977Z,14.50
2018-09-14T05:12:43.184Z,14.93
2018-09-14T05:15:12.387Z,13.97
2018-09-14T05:17:41.622Z,14.83
2018-09-14T05:20:10.876Z,14.77
2018-09-14T05:22:40.083Z,13.27
2018-09-14T05:25:09.301Z,17.40
2018-09-14T05:27:38.559Z,16.17
2018-09-14T05:30:08.869Z,13.87
2018-09-14T05:32:38.110Z,14.80
2018-09-14T05:35:07.618Z,14.20
2018-09-14T05:37:37.079Z,15.27
2018-09-14T05:40:06.357Z,14.33
2018-09-14T05:42:35.560Z,12.73
2018-09-14T05:45:04.874Z,12.00
2018-09-14T05:47:34.095Z,12.80
2018-09-14T05:50:03.326Z,14.60
2018-09-14T05:52:32.664Z,15.90
2018-09-14T05:55:01.906Z,16.57
2018-09-14T05:57:31.128Z,17.10
2018-09-14T06:00:00.328Z,17.40
2018-09-14T06:02:29.564Z,16.30
2018-09-14T06:04:59.612Z,14.83
2018-09-14T06:07:28.944Z,13.77
2018-09-14T06:09:58.184Z,14.87
2018-09-14T06:12:27.666Z,15.47
2018-09-14T06:14:56.882Z,16.90
2018-09-14T06:17:26.146Z,16.87
2018-09-14T06:19:56.006Z,13.00
2018-09-14T06:22:25.407Z,13.60
2018-09-14T06:24:54.791Z,13.47
2018-09-14T06:27:23.987Z,14.90
2018-09-14T06:29:53.205Z,13.07
2018-09-14T06:32:23.352Z,13.20
2018-09-14T06:34:52.598Z,12.17
2018-09-14T06:37:22.047Z,15.30
2018-09-14T06:39:51.319Z,12.50
2018-09-14T06:42:20.533Z,13.33
2018-09-14T06:44:50.289Z,14.00
2018-09-14T06:47:19.555Z,12.73
2018-09-14T06:49:49.505Z,13.33
2018-09-14T06:52:18.777Z,12.73
2018-09-14T06:54:47.971Z,12.77
2018-09-14T06:57:17.240Z,13.03
2018-09-14T06:59:46.420Z,11.83
2018-09-14T07:02:15.886Z,11.60
2018-09-14T07:04:45.106Z,12.50
2018-09-14T07:07:14.320Z,12.87
2018-09-14T07:09:43.576Z,11.30
2018-09-14T07:12:12.832Z,10.50
2018-09-14T07:14:42.069Z,12.73
2018-09-14T07:17:12.652Z,11.27
2018-09-14T07:19:42.056Z,11.97
2018-09-14T07:22:11.385Z,14.10
2018-09-14T07:24:40.773Z,12.00
2018-09-14T07:27:10.880Z,12.90
2018-09-14T07:29:40.169Z,14.23
2018-09-14T07:32:09.478Z,13.83
2018-09-14T07:34:38.961Z,11.83
2018-09-14T07:37:08.355Z,13.30
2018-09-14T07:39:37.638Z,11.10
2018-09-14T07:42:07.179Z,12.90
2018-09-14T07:44:37.448Z,14.23
2018-09-14T07:47:08.128Z,10.40
2018-09-14T07:49:37.854Z,14.77
2018-09-14T07:52:08.259Z,11.43
2018-09-14T07:54:37.503Z,12.60
2018-09-14T07:57:06.695Z,13.67
2018-09-14T07:59:36.020Z,13.10
2018-09-14T08:02:05.180Z,13.13
2018-09-14T08:04:34.664Z,12.00
2018-09-14T08:07:03.873Z,11.57
2018-09-14T08:09:33.081Z,12.40
2018-09-14T08:12:02.359Z,12.70
2018-09-14T08:14:31.632Z,14.23
2018-09-14T08:17:00.939Z,11.10
2018-09-14T08:19:30.663Z,14.77
2018-09-14T08:22:00.030Z,13.67
2018-09-14T08:24:29.197Z,13.17
2018-09-14T08:26:58.519Z,13.50
2018-09-14T08:29:27.687Z,13.30
2018-09-14T08:31:56.910Z,10.90
2018-09-14T08:34:26.325Z,11.67
2018-09-14T08:36:55.542Z,10.07
2018-09-14T08:39:24.802Z,10.57
2018-09-14T08:41:54.120Z,9.50
2018-09-14T08:44:23.359Z,9.63
2018-09-14T08:46:52.593Z,9.20
2018-09-14T08:49:21.787Z,9.23
2018-09-14T08:51:51.001Z,9.80
2018-09-14T08:54:20.244Z,9.17
2018-09-14T08:56:49.476Z,8.40
2018-09-14T08:59:18.765Z,8.63
2018-09-14T09:01:48.061Z,7.53
2018-09-14T09:04:17.280Z,9.43
2018-09-14T09:06:46.555Z,8.23
2018-09-14T09:09:15.781Z,7.93
2018-09-14T09:11:44.963Z,7.37
2018-09-14T09:14:14.167Z,7.17
2018-09-14T09:16:43.470Z,7.07
2018-09-14T09:19:12.822Z,6.07
2018-09-14T09:21:42.376Z,6.40
2018-09-14T09:24:11.760Z,7.30
2018-09-14T09:26:41.073Z,7.20
2018-09-14T09:29:10.399Z,6.90
2018-09-14T09:31:39.692Z,5.80
2018-09-14T09:34:09.408Z,5.90
2018-09-14T09:36:38.944Z,6.73
2018-09-14T09:39:11.215Z,6.67
2018-09-14T09:41:41.496Z,6.07
2018-09-14T09:44:11.267Z,5.70
2018-09-14T09:46:40.530Z,7.03
2018-09-14T09:49:09.862Z,7.23
2018-09-14T09:51:39.200Z,6.27
2018-09-14T09:54:08.504Z,6.27
2018-09-14T09:56:37.981Z,8.07
2018-09-14T09:59:07.694Z,6.97
2018-09-14T10:01:41.879Z,6.13
2018-09-14T10:04:16.705Z,6.90
2018-09-14T10:06:46.656Z,6.50
2018-09-14T10:09:15.994Z,6.93
2018-09-14T10:11:45.257Z,7.60
2018-09-14T10:14:14.623Z,6.43
2018-09-14T10:16:43.951Z,5.37
2018-09-14T10:19:13.351Z,6.00
2018-09-14T10:21:43.048Z,6.67
2018-09-14T10:24:12.563Z,6.30
2018-09-14T10:26:41.986Z,7.20
2018-09-14T10:29:13.477Z,5.50
2018-09-14T10:31:43.582Z,6.30
2018-09-14T10:34:12.968Z,7.07
2018-09-14T10:36:42.279Z,6.20
2018-09-14T10:39:12.575Z,5.80
2018-09-14T10:41:41.932Z,5.93
2018-09-14T10:44:11.388Z,5.00
2018-09-14T10:46:40.700Z,6.23
2018-09-14T10:49:10.016Z,5.20
2018-09-14T10:51:39.469Z,5.43
2018-09-14T10:54:08.896Z,5.80
2018-09-14T10:56:38.263Z,6.30
2018-09-14T10:59:07.598Z,5.00
2018-09-14T11:01:36.913Z,6.27
2018-09-14T11:04:06.316Z,5.30
2018-09-14T11:06:36.672Z,6.27
2018-09-14T11:09:10.116Z,6.50
2018-09-14T11:11:39.429Z,5.20
2018-09-14T11:14:08.790Z,4.57
2018-09-14T11:16:38.343Z,5.80
2018-09-14T11:19:07.744Z,5.93
2018-09-14T11:21:37.142Z,5.70
2018-09-14T11:24:06.486Z,5.00
2018-09-14T11:26:35.738Z,4.90
2018-09-14T11:29:05.083Z,5.87
2018-09-14T11:31:34.607Z,5.40
2018-09-14T11:34:03.890Z,5.63
2018-09-14T11:36:33.208Z,5.23
2018-09-14T11:39:02.437Z,5.80
2018-09-14T11:41:33.097Z,5.43
2018-09-14T11:44:02.308Z,5.00
2018-09-14T11:46:31.856Z,4.93
2018-09-14T11:49:01.097Z,5.33
2018-09-14T11:51:30.671Z,4.70
2018-09-14T11:54:00.066Z,4.90
2018-09-14T11:56:29.327Z,5.43
2018-09-14T11:58:58.624Z,5.70
2018-09-14T12:01:27.925Z,4.83
2018-09-14T12:03:58.419Z,5.20
2018-09-14T12:06:27.956Z,5.20
2018-09-14T12:08:57.509Z,5.20
2018-09-14T12:11:26.930Z,4.93
2018-09-14T12:13:56.235Z,5.60
2018-09-14T12:16:25.752Z,5.00
2018-09-14T12:18:54.982Z,6.17
2018-09-14T12:21:24.576Z,4.37
2018-09-14T12:23:53.992Z,5.37
2018-09-14T12:26:23.339Z,6.03
2018-09-14T12:28:52.699Z,4.70
2018-09-14T12:31:22.145Z,5.53
2018-09-14T12:33:51.623Z,5.07
2018-09-14T12:36:20.879Z,5.47
2018-09-14T12:38:50.300Z,5.33
2018-09-14T12:41:19.616Z,4.80
2018-09-14T12:43:48.917Z,5.77
2018-09-14T12:46:18.508Z,5.13
2018-09-14T12:48:48.091Z,5.97
2018-09-14T12:51:17.339Z,5.20
2018-09-14T12:53:46.602Z,5.20
2018-09-14T12:56:15.918Z,5.43
2018-09-14T12:58:45.158Z,4.10
2018-09-14T13:01:14.712Z,4.63
2018-09-14T13:03:43.985Z,5.47
2018-09-14T13:06:13.343Z,4.70
2018-09-14T13:08:42.796Z,4.87
2018-09-14T13:11:12.254Z,5.30
2018-09-14T13:13:42.368Z,4.40
2018-09-14T13:16:11.935Z,4.87
2018-09-14T13:18:41.315Z,4.27
2018-09-14T13:21:10.731Z,5.47
2018-09-14T13:23:40.469Z,3.53
2018-09-14T13:26:10.167Z,3.80
2018-09-14T13:28:39.605Z,4.20
2018-09-14T13:31:09.112Z,4.60
2018-09-14T13:33:38.539Z,4.90
2018-09-14T13:36:07.893Z,4.10
2018-09-14T13:38:38.230Z,4.80
2018-09-14T13:41:07.779Z,3.93
2018-09-14T13:43:37.198Z,4.20
2018-09-14T13:46:06.607Z,4.50
2018-09-14T13:48:35.983Z,4.20
2018-09-14T13:51:05.345Z,3.40
2018-09-14T13:53:34.938Z,4.53
2018-09-14T13:56:04.266Z,4.23
2018-09-14T13:58:33.622Z,4.87
2018-09-14T14:01:03.160Z,4.00
2018-09-14T14:03:32.388Z,3.67
2018-09-14T14:06:01.651Z,4.80
2018-09-14T14:08:30.820Z,4.20
2018-09-14T14:11:00.138Z,3.93
2018-09-14T14:13:29.351Z,4.37
2018-09-14T14:15:58.614Z,3.70
2018-09-14T14:18:27.811Z,3.97
2018-09-14T14:20:57.721Z,3.80
2018-09-14T14:23:26.924Z,4.17
2018-09-14T14:25:56.347Z,3.90
2018-09-14T14:28:25.559Z,4.10
2018-09-14T14:30:54.794Z,3.83
2018-09-14T14:33:24.056Z,3.83
2018-09-14T14:35:53.263Z,4.07
2018-09-14T14:38:22.539Z,3.73
2018-09-14T14:40:52.133Z,4.30
2018-09-14T14:43:21.531Z,4.00
2018-09-14T14:45:50.795Z,4.07
2018-09-14T14:48:20.016Z,4.53
2018-09-14T14:50:49.399Z,4.60
2018-09-14T14:53:18.637Z,4.33
2018-09-14T14:55:48.021Z,3.90
2018-09-14T14:58:19.803Z,3.57
2018-09-14T15:00:49.557Z,3.90
2018-09-14T15:03:19.378Z,3.83
2018-09-14T15:05:48.752Z,3.90
2018-09-14T15:08:19.258Z,3.97
2018-09-14T15:10:48.659Z,3.83
2018-09-14T15:13:18.020Z,4.00
2018-09-14T15:15:47.359Z,3.23
2018-09-14T15:18:16.859Z,3.60
2018-09-14T15:20:46.248Z,3.93
2018-09-14T15:23:15.775Z,3.80
2018-09-14T15:25:45.180Z,3.30
2018-09-14T15:28:14.631Z,3.73
2018-09-14T15:30:44.089Z,3.40
2018-09-14T15:33:13.672Z,3.63
2018-09-14T15:35:43.122Z,3.43
2018-09-14T15:38:12.536Z,3.70
2018-09-14T15:40:42.028Z,3.10
2018-09-14T15:43:11.361Z,3.90
2018-09-14T15:45:41.048Z,3.40
2018-09-14T15:48:10.436Z,3.73
2018-09-14T15:50:40.542Z,3.40
2018-09-14T15:53:10.028Z,3.23
2018-09-14T15:55:39.727Z,3.67
2018-09-14T15:58:09.174Z,3.97
2018-09-14T16:00:38.910Z,3.90
2018-09-14T16:03:08.352Z,3.60
2018-09-14T16:05:37.708Z,3.60
2018-09-14T16:08:07.241Z,3.27
2018-09-14T16:10:36.473Z,3.57
2018-09-14T16:13:06.166Z,3.87
2018-09-14T16:15:35.852Z,3.40
2018-09-14T16:18:05.148Z,4.00
2018-09-14T16:20:34.548Z,3.57
2018-09-14T16:23:03.850Z,3.50
2018-09-14T16:25:33.106Z,3.27
2018-09-14T16:28:02.362Z,3.50
2018-09-14T16:30:31.902Z,3.10
2018-09-14T16:33:01.342Z,3.60
2018-09-14T16:35:30.654Z,4.50
2018-09-14T16:38:00.307Z,3.50
2018-09-14T16:40:29.875Z,3.80
2018-09-14T16:42:59.297Z,4.00
2018-09-14T16:45:28.620Z,3.80
2018-09-14T16:47:59.087Z,3.10
2018-09-14T16:50:28.501Z,4.27
2018-09-14T16:52:57.869Z,3.40
2018-09-14T16:55:27.244Z,4.40
2018-09-14T16:57:56.642Z,4.60
2018-09-14T17:00:28.364Z,4.30
2018-09-14T17:02:58.131Z,4.40
2018-09-14T17:05:28.293Z,4.40
2018-09-14T17:07:57.919Z,4.83
2018-09-14T17:10:27.130Z,3.90
2018-09-14T17:12:56.514Z,4.57
2018-09-14T17:15:26.934Z,4.70
2018-09-14T17:17:56.450Z,4.43
2018-09-14T17:20:25.671Z,4.30
2018-09-14T17:22:54.852Z,5.47
2018-09-14T17:25:24.112Z,4.70
2018-09-14T17:27:53.361Z,4.77
2018-09-14T17:30:22.620Z,5.37
2018-09-14T17:32:51.880Z,5.27
2018-09-14T17:35:21.223Z,4.57
2018-09-14T17:37:50.535Z,5.23
2018-09-14T17:40:19.786Z,4.90
2018-09-14T17:42:49.006Z,5.07
2018-09-14T17:45:18.328Z,5.37
2018-09-14T17:47:47.613Z,5.00
2018-09-14T17:50:17.026Z,5.20
2018-09-14T17:52:46.796Z,5.07
2018-09-14T17:55:16.290Z,5.17
2018-09-14T17:57:45.734Z,5.03
2018-09-14T18:00:14.923Z,6.20
2018-09-14T18:02:44.128Z,6.00
2018-09-14T18:05:13.377Z,5.47
2018-09-14T18:07:42.662Z,5.73
2018-09-14T18:10:11.887Z,5.70
2018-09-14T18:12:41.083Z,6.13
2018-09-14T18:15:10.595Z,6.00
2018-09-14T18:17:39.951Z,5.73
2018-09-14T18:20:09.232Z,7.17
2018-09-14T18:22:38.869Z,6.03
2018-09-14T18:25:08.254Z,7.03
2018-09-14T18:27:37.788Z,6.30
2018-09-14T18:30:07.226Z,6.27
2018-09-14T18:32:36.474Z,6.60
2018-09-14T18:35:05.895Z,6.63
2018-09-14T18:37:35.224Z,6.90
2018-09-14T18:40:05.001Z,7.27
2018-09-14T18:42:34.277Z,7.93
2018-09-14T18:45:03.539Z,7.03
2018-09-14T18:47:32.733Z,7.93
2018-09-14T18:50:02.450Z,7.20
2018-09-14T18:52:31.758Z,6.90
2018-09-14T18:55:00.986Z,7.93
2018-09-14T18:57:30.226Z,7.83
2018-09-14T18:59:59.757Z,8.20
2018-09-14T19:02:29.247Z,7.40
2018-09-14T19:05:00.930Z,7.53
2018-09-14T19:07:30.516Z,7.50
2018-09-14T19:10:04.362Z,7.17
2018-09-14T19:12:34.084Z,7.17
2018-09-14T19:15:06.980Z,8.27
2018-09-14T19:17:38.215Z,8.37
2018-09-14T19:20:07.603Z,6.97
2018-09-14T19:22:36.822Z,8.47
2018-09-14T19:25:06.036Z,8.30
2018-09-14T19:27:35.295Z,7.90
2018-09-14T19:30:04.643Z,7.53
2018-09-14T19:32:34.256Z,7.93
2018-09-14T19:35:03.490Z,8.30
2018-09-14T19:37:32.729Z,8.17
2018-09-14T19:40:02.208Z,8.20
2018-09-14T19:42:31.578Z,8.43
2018-09-14T19:45:01.482Z,8.30
2018-09-14T19:47:30.746Z,8.80
2018-09-14T19:50:00.961Z,8.73
2018-09-14T19:52:30.918Z,9.43
2018-09-14T19:55:01.226Z,9.57
2018-09-14T19:57:31.038Z,8.43
2018-09-14T20:00:01.008Z,9.00
2018-09-14T20:02:30.749Z,8.40
2018-09-14T20:05:00.307Z,9.73
2018-09-14T20:07:30.048Z,9.93
2018-09-14T20:10:00.281Z,9.40
2018-09-14T20:12:30.274Z,10.17
2018-09-14T20:15:00.236Z,11.87
2018-09-14T20:17:30.287Z,11.70
2018-09-14T20:20:00.916Z,12.27
2018-09-14T20:22:30.834Z,10.83
2018-09-14T20:25:01.028Z,12.00
2018-09-14T20:27:36.669Z,10.23
2018-09-14T20:30:09.683Z,10.10
2018-09-14T20:32:39.743Z,9.60
2018-09-14T20:35:10.139Z,10.77
2018-09-14T20:37:40.225Z,10.33
2018-09-14T20:40:09.897Z,11.47
2018-09-14T20:42:39.906Z,11.33
2018-09-14T20:45:09.575Z,13.17
2018-09-14T20:47:41.345Z,14.37
2018-09-14T20:50:11.282Z,12.93
2018-09-14T20:52:41.672Z,14.03
2018-09-14T20:55:11.748Z,14.43
2018-09-14T20:57:41.651Z,13.33
2018-09-14T21:00:12.048Z,12.10
2018-09-14T21:02:42.628Z,14.20
2018-09-14T21:05:12.460Z,14.37
2018-09-14T21:07:42.244Z,15.13
2018-09-14T21:10:11.558Z,14.77
2018-09-14T21:12:40.744Z,16.53
2018-09-14T21:15:10.063Z,14.40
2018-09-14T21:17:39.376Z,14.97
2018-09-14T21:20:08.713Z,13.17
2018-09-14T21:22:38.138Z,16.33
2018-09-14T21:25:07.664Z,16.30
2018-09-14T21:27:37.105Z,15.37
2018-09-14T21:30:07.627Z,15.40
2018-09-14T21:32:37.998Z,13.63
2018-09-14T21:35:07.537Z,16.97
2018-09-14T21:37:36.798Z,15.20
2018-09-14T21:40:06.541Z,14.77
2018-09-14T21:42:35.916Z,13.50
2018-09-14T21:45:05.556Z,13.93
2018-09-14T21:47:35.519Z,13.23
2018-09-14T21:50:04.977Z,14.03
2018-09-14T21:52:34.247Z,15.20
2018-09-14T21:55:03.793Z,13.67
2018-09-14T21:57:33.254Z,14.90
2018-09-14T22:00:07.629Z,15.50
2018-09-14T22:02:37.070Z,14.67
2018-09-14T22:05:06.785Z,16.63
2018-09-14T22:07:37.072Z,15.70
2018-09-14T22:10:06.748Z,15.60
2018-09-14T22:12:36.654Z,15.20
2018-09-14T22:15:06.011Z,16.10
2018-09-14T22:17:35.948Z,14.60
2018-09-14T22:20:05.495Z,14.53
2018-09-14T22:22:34.863Z,15.07
2018-09-14T22:25:04.337Z,13.37
2018-09-14T22:27:33.608Z,14.40
2018-09-14T22:30:03.149Z,15.30
2018-09-14T22:32:33.726Z,18.60
2018-09-14T22:35:03.130Z,19.17
2018-09-14T22:37:32.608Z,19.03
2018-09-14T22:40:01.917Z,19.43
2018-09-14T22:42:31.279Z,19.10
2018-09-14T22:45:00.667Z,17.03
2018-09-14T22:47:30.499Z,16.37
2018-09-14T22:50:00.093Z,18.90
2018-09-14T22:52:29.344Z,18.03
2018-09-14T22:54:58.636Z,18.00
2018-09-14T22:57:27.910Z,16.63
2018-09-14T22:59:57.340Z,16.47
2018-09-14T23:02:26.670Z,17.90
2018-09-14T23:04:55.847Z,16.07
2018-09-14T23:07:25.087Z,17.43
2018-09-14T23:09:54.344Z,18.90
2018-09-14T23:12:23.599Z,17.50
2018-09-14T23:14:52.865Z,17.60
2018-09-14T23:17:22.127Z,22.07
2018-09-14T23:19:51.367Z,20.50
2018-09-14T23:22:20.576Z,17.60
2018-09-14T23:24:49.827Z,18.17
2018-09-14T23:27:19.039Z,16.73
2018-09-14T23:29:49.005Z,17.10
2018-09-14T23:32:18.323Z,16.87
2018-09-14T23:34:48.087Z,16.90
2018-09-14T23:37:17.318Z,16.80
2018-09-14T23:39:46.835Z,17.57
2018-09-14T23:42:16.085Z,17.10
2018-09-14T23:44:45.294Z,15.67
2018-09-14T23:47:14.862Z,17.47
2018-09-14T23:49:44.126Z,15.23
2018-09-14T23:52:13.430Z,15.13
2018-09-14T23:54:42.904Z,14.83
2018-09-14T23:57:12.162Z,16.43
2018-09-14T23:59:41.360Z,16.30
